createdAt,value
2018-04-14T00:01:59.112Z,7.90
2018-04-14T00:04:27.363Z,7.90
2018-04-14T00:06:55.617Z,8.00
2018-04-14T00:09:23.880Z,8.00
2018-04-14T00:11:52.905Z,8.00
2018-04-14T00:14:21.157Z,8.00
2018-04-14T00:16:50.189Z,7.90
2018-04-14T00:19:18.446Z,7.90
2018-04-14T00:21:46.702Z,7.80
2018-04-14T00:24:15.722Z,7.60
2018-04-14T00:26:43.981Z,7.60
2018-04-14T00:29:12.235Z,7.60
2018-04-14T00:31:40.484Z,7.60
2018-04-14T00:34:08.745Z,7.50
2018-04-14T00:36:37.009Z,7.50
2018-04-14T00:39:06.023Z,7.50
2018-04-14T00:41:34.286Z,7.50
2018-04-14T00:44:02.546Z,7.40
2018-04-14T00:46:30.814Z,7.50
2018-04-14T00:48:59.069Z,7.50
2018-04-14T00:51:28.088Z,7.30
2018-04-14T00:53:56.354Z,7.30
2018-04-14T00:56:24.610Z,7.40
2018-04-14T00:58:53.627Z,7.30
2018-04-14T01:01:21.885Z,7.30
2018-04-14T01:03:50.149Z,7.30
2018-04-14T01:06:19.180Z,7.30
2018-04-14T01:08:47.438Z,7.30
2018-04-14T01:11:15.689Z,7.40
2018-04-14T01:13:44.717Z,7.40
2018-04-14T01:16:12.977Z,7.40
2018-04-14T01:18:41.234Z,7.30
2018-04-14T01:21:10.249Z,7.20
2018-04-14T01:23:38.579Z,7.20
2018-04-14T01:26:06.832Z,7.10
2018-04-14T01:28:35.089Z,7.10
2018-04-14T01:31:03.348Z,7.10
2018-04-14T01:33:32.380Z,7.00
2018-04-14T01:36:00.639Z,7.00
2018-04-14T01:38:28.892Z,7.10
2018-04-14T01:40:57.921Z,7.00
2018-04-14T01:43:26.178Z,6.90
2018-04-14T01:45:54.444Z,7.00
2018-04-14T01:48:22.703Z,6.90
2018-04-14T01:50:51.726Z,7.10
2018-04-14T01:53:19.990Z,7.10
2018-04-14T01:55:48.244Z,7.20
2018-04-14T01:58:17.270Z,7.00
2018-04-14T02:00:45.523Z,7.00
2018-04-14T02:03:14.552Z,6.90
2018-04-14T02:05:42.806Z,6.90
2018-04-14T02:08:11.050Z,6.80
2018-04-14T02:10:40.078Z,6.60
2018-04-14T02:13:08.326Z,6.60
2018-04-14T02:15:37.360Z,6.40
2018-04-14T02:18:05.617Z,6.40
2018-04-14T02:20:33.891Z,6.40
2018-04-14T02:23:02.143Z,6.50
2018-04-14T02:25:31.187Z,6.60
2018-04-14T02:27:59.434Z,6.60
2018-04-14T02:30:27.698Z,6.70
2018-04-14T02:32:56.728Z,6.70
2018-04-14T02:35:24.974Z,6.70
2018-04-14T02:37:53.241Z,6.70
2018-04-14T02:40:22.264Z,7.00
2018-04-14T02:42:50.524Z,6.90
2018-04-14T02:45:18.780Z,6.90
2018-04-14T02:47:47.812Z,6.80
2018-04-14T02:50:16.071Z,6.80
2018-04-14T02:52:44.343Z,6.90
2018-04-14T02:55:12.603Z,6.90
2018-04-14T02:57:41.628Z,6.90
2018-04-14T03:00:09.885Z,6.80
2018-04-14T03:02:38.153Z,7.00
2018-04-14T03:05:07.179Z,7.10
2018-04-14T03:07:35.433Z,7.10
2018-04-14T03:10:03.687Z,7.00
2018-04-14T03:12:32.712Z,7.10
2018-04-14T03:15:00.964Z,7.10
2018-04-14T03:17:30.007Z,7.20
2018-04-14T03:19:58.263Z,7.20
2018-04-14T03:22:26.507Z,7.20
2018-04-14T03:24:55.543Z,7.00
2018-04-14T03:27:23.834Z,7.00
2018-04-14T03:29:52.124Z,6.90
2018-04-14T03:32:20.428Z,6.70
2018-04-14T03:34:49.492Z,6.60
2018-04-14T03:37:17.768Z,6.60
2018-04-14T03:39:46.057Z,6.70
2018-04-14T03:42:14.322Z,6.70
2018-04-14T03:44:42.604Z,6.70
2018-04-14T03:47:10.884Z,6.70
2018-04-14T03:49:39.173Z,6.70
2018-04-14T03:52:08.225Z,6.70
2018-04-14T03:54:36.520Z,6.70
2018-04-14T03:57:04.803Z,6.70
2018-04-14T03:59:33.112Z,6.70
2018-04-14T04:02:01.406Z,6.70
2018-04-14T04:04:29.690Z,6.90
2018-04-14T04:06:57.964Z,6.90
2018-04-14T04:09:26.240Z,7.00
2018-04-14T04:11:54.522Z,7.00
2018-04-14T04:14:22.806Z,7.00
2018-04-14T04:16:51.124Z,7.10
2018-04-14T04:19:37.721Z,6.90
2018-04-14T04:22:24.447Z,6.60
2018-04-14T04:25:11.304Z,6.70
2018-04-14T04:27:39.609Z,6.70
2018-04-14T04:30:08.723Z,6.70
2018-04-14T04:32:37.792Z,6.80
2018-04-14T04:35:06.075Z,6.80
2018-04-14T04:37:34.389Z,6.80
2018-04-14T04:40:02.673Z,6.90
2018-04-14T04:42:30.980Z,7.00
2018-04-14T04:44:59.264Z,7.00
2018-04-14T04:47:27.575Z,7.10
2018-04-14T04:49:56.626Z,6.90
2018-04-14T04:52:24.916Z,6.90
2018-04-14T04:54:53.193Z,7.10
2018-04-14T04:57:21.494Z,7.10
2018-04-14T04:59:49.772Z,7.00
2018-04-14T05:02:18.853Z,6.90
2018-04-14T05:04:47.144Z,6.90
2018-04-14T05:07:16.192Z,7.10
2018-04-14T05:09:44.467Z,7.10
2018-04-14T05:12:12.754Z,7.20
2018-04-14T05:14:41.024Z,7.20
2018-04-14T05:17:09.299Z,7.20
2018-04-14T05:19:37.583Z,7.30
2018-04-14T05:22:05.858Z,7.40
2018-04-14T05:24:34.145Z,7.50
2018-04-14T05:27:02.415Z,7.50
2018-04-14T05:29:30.705Z,7.60
2018-04-14T05:31:58.976Z,7.70
2018-04-14T05:34:27.275Z,7.80
2018-04-14T05:36:56.325Z,8.00
2018-04-14T05:39:24.615Z,7.90
2018-04-14T05:41:52.885Z,8.00
2018-04-14T05:44:21.156Z,8.00
2018-04-14T05:46:49.487Z,8.20
2018-04-14T05:49:18.545Z,8.20
2018-04-14T05:51:46.833Z,8.20
2018-04-14T05:54:15.136Z,8.30
2018-04-14T05:56:43.421Z,8.30
2018-04-14T05:59:11.701Z,8.40
2018-04-14T06:01:39.972Z,8.50
2018-04-14T06:04:08.272Z,8.70
2018-04-14T06:06:36.560Z,8.70
2018-04-14T06:09:05.659Z,8.80
2018-04-14T06:11:33.962Z,8.90
2018-04-14T06:14:02.284Z,8.90
2018-04-14T06:16:30.588Z,9.00
2018-04-14T06:18:58.880Z,9.00
2018-04-14T06:21:27.160Z,9.20
2018-04-14T06:23:55.436Z,9.30
2018-04-14T06:26:23.711Z,9.40
2018-04-14T06:28:52.003Z,9.40
2018-04-14T06:31:21.076Z,9.70
2018-04-14T06:33:49.404Z,9.70
2018-04-14T06:36:17.637Z,9.90
2018-04-14T06:38:45.916Z,10.00
2018-04-14T06:41:14.191Z,10.00
2018-04-14T06:43:42.472Z,10.10
2018-04-14T06:46:11.552Z,10.20
2018-04-14T06:48:39.843Z,10.20
2018-04-14T06:51:08.149Z,10.30
2018-04-14T06:53:36.439Z,10.40
2018-04-14T06:56:04.739Z,10.40
2018-04-14T06:58:33.022Z,10.40
2018-04-14T07:01:01.326Z,10.40
2018-04-14T07:03:29.624Z,10.40
2018-04-14T07:05:58.675Z,10.40
2018-04-14T07:08:26.974Z,10.40
2018-04-14T07:10:55.277Z,10.50
2018-04-14T07:13:23.623Z,10.60
2018-04-14T07:15:51.927Z,10.80
2018-04-14T07:18:20.989Z,11.10
2018-04-14T07:20:49.304Z,11.10
2018-04-14T07:23:18.360Z,11.30
2018-04-14T07:25:46.652Z,11.30
2018-04-14T07:28:15.730Z,11.60
2018-04-14T07:30:44.035Z,11.60
2018-04-14T07:33:12.346Z,11.60
2018-04-14T07:35:40.638Z,11.60
2018-04-14T07:38:08.928Z,11.60
2018-04-14T07:40:37.216Z,11.80
2018-04-14T07:43:05.500Z,11.80
2018-04-14T07:45:33.797Z,11.90
2018-04-14T07:48:02.082Z,12.00
2018-04-14T07:50:30.397Z,12.20
2018-04-14T07:52:58.689Z,12.30
2018-04-14T07:55:27.012Z,12.20
2018-04-14T07:57:55.308Z,12.30
2018-04-14T08:00:23.631Z,12.50
2018-04-14T08:02:52.696Z,12.70
2018-04-14T08:05:20.991Z,12.70
2018-04-14T08:07:49.274Z,12.80
2018-04-14T08:10:17.611Z,12.90
2018-04-14T08:12:45.891Z,13.00
2018-04-14T08:15:14.165Z,13.20
2018-04-14T08:17:42.466Z,13.30
2018-04-14T08:20:10.767Z,13.30
2018-04-14T08:22:39.812Z,13.40
2018-04-14T08:25:08.107Z,13.40
2018-04-14T08:27:36.386Z,13.50
2018-04-14T08:30:04.659Z,13.50
2018-04-14T08:32:32.910Z,13.60
2018-04-14T08:35:01.171Z,13.80
2018-04-14T08:37:29.492Z,14.00
2018-04-14T08:39:58.455Z,14.00
2018-04-14T08:42:26.726Z,14.00
2018-04-14T08:44:55.007Z,13.90
2018-04-14T08:47:23.290Z,13.90
2018-04-14T08:49:51.519Z,13.90
2018-04-14T08:52:20.542Z,14.10
2018-04-14T08:54:48.815Z,14.10
2018-04-14T08:57:17.083Z,14.30
2018-04-14T08:59:45.345Z,14.30
2018-04-14T09:02:13.637Z,14.30
2018-04-14T09:04:41.937Z,14.50
2018-04-14T09:07:10.203Z,14.60
2018-04-14T09:09:38.459Z,14.60
2018-04-14T09:12:06.735Z,14.70
2018-04-14T09:14:34.983Z,14.60
2018-04-14T09:17:03.243Z,14.80
2018-04-14T09:19:31.502Z,14.70
2018-04-14T09:21:59.756Z,14.60
2018-04-14T09:24:28.024Z,14.70
2018-04-14T09:26:56.296Z,14.50
2018-04-14T09:29:24.585Z,14.70
2018-04-14T09:31:52.843Z,14.80
2018-04-14T09:34:21.115Z,14.80
2018-04-14T09:36:49.385Z,14.90
2018-04-14T09:39:18.416Z,15.20
2018-04-14T09:41:46.673Z,15.20
2018-04-14T09:44:14.933Z,15.50
2018-04-14T09:46:43.970Z,15.40
2018-04-14T09:49:12.230Z,15.40
2018-04-14T09:51:40.482Z,15.50
2018-04-14T09:54:08.765Z,15.50
2018-04-14T09:56:37.054Z,15.50
2018-04-14T09:59:05.350Z,15.60
2018-04-14T10:01:33.614Z,15.50
2018-04-14T10:04:01.872Z,15.70
2018-04-14T10:06:30.137Z,15.80
2018-04-14T10:08:58.391Z,16.00
2018-04-14T10:11:27.429Z,15.90
2018-04-14T10:13:55.680Z,15.90
2018-04-14T10:16:23.945Z,15.80
2018-04-14T10:18:52.201Z,16.00
2018-04-14T10:21:20.467Z,16.20
2018-04-14T10:23:48.745Z,16.10
2018-04-14T10:26:17.017Z,16.20
2018-04-14T10:28:45.268Z,16.20
2018-04-14T10:31:13.561Z,16.20
2018-04-14T10:33:41.819Z,16.40
2018-04-14T10:36:10.080Z,16.20
2018-04-14T10:38:38.330Z,16.20
2018-04-14T10:41:07.374Z,16.50
2018-04-14T10:43:35.645Z,16.50
2018-04-14T10:46:03.927Z,16.20
2018-04-14T10:48:32.192Z,16.10
2018-04-14T10:51:00.448Z,16.30
2018-04-14T10:53:28.718Z,16.80
2018-04-14T10:55:56.988Z,16.90
2018-04-14T10:58:25.252Z,16.80
2018-04-14T11:00:54.286Z,17.20
2018-04-14T11:03:22.554Z,17.20
2018-04-14T11:05:50.814Z,17.30
2018-04-14T11:08:19.083Z,16.70
2018-04-14T11:10:47.350Z,16.40
2018-04-14T11:13:16.391Z,16.50
2018-04-14T11:15:44.641Z,16.50
2018-04-14T11:18:12.900Z,16.70
2018-04-14T11:20:41.924Z,17.10
2018-04-14T11:23:10.185Z,17.10
2018-04-14T11:25:38.459Z,17.30
2018-04-14T11:28:06.715Z,17.00
2018-04-14T11:30:34.983Z,16.90
2018-04-14T11:33:04.006Z,17.20
2018-04-14T11:35:32.274Z,17.20
2018-04-14T11:38:00.526Z,17.30
2018-04-14T11:40:28.789Z,17.40
2018-04-14T11:42:57.055Z,18.10
2018-04-14T11:45:25.322Z,18.90
2018-04-14T11:47:53.580Z,18.80
2018-04-14T11:50:21.846Z,18.30
2018-04-14T11:52:50.101Z,17.80
2018-04-14T11:55:18.364Z,17.50
2018-04-14T11:57:47.382Z,17.40
2018-04-14T12:00:15.655Z,17.40
2018-04-14T12:02:43.904Z,17.40
2018-04-14T12:05:12.935Z,17.40
2018-04-14T12:07:41.193Z,17.40
2018-04-14T12:10:09.490Z,17.10
2018-04-14T12:12:37.745Z,17.20
2018-04-14T12:15:06.011Z,17.20
2018-04-14T12:17:34.274Z,17.30
2018-04-14T12:20:03.301Z,17.50
2018-04-14T12:22:31.565Z,17.50
2018-04-14T12:24:59.833Z,17.60
2018-04-14T12:27:28.093Z,17.60
2018-04-14T12:29:56.350Z,18.60
2018-04-14T12:32:24.616Z,19.50
2018-04-14T12:34:52.876Z,19.90
2018-04-14T12:37:21.138Z,19.60
2018-04-14T12:39:49.389Z,18.90
2018-04-14T12:42:17.670Z,19.40
2018-04-14T12:44:45.920Z,19.60
2018-04-14T12:47:14.181Z,20.20
2018-04-14T12:49:43.072Z,20.00
2018-04-14T12:52:11.340Z,19.70
2018-04-14T12:54:40.391Z,19.40
2018-04-14T12:57:08.645Z,20.30
2018-04-14T12:59:36.909Z,20.80
2018-04-14T13:02:05.942Z,20.50
2018-04-14T13:04:34.188Z,20.40
2018-04-14T13:07:03.059Z,19.70
2018-04-14T13:09:31.305Z,19.00
2018-04-14T13:11:59.570Z,19.10
2018-04-14T13:14:27.842Z,19.40
2018-04-14T13:16:56.095Z,19.20
2018-04-14T13:19:24.350Z,19.40
2018-04-14T13:21:52.619Z,19.20
2018-04-14T13:24:20.902Z,19.40
2018-04-14T13:26:49.919Z,19.50
2018-04-14T13:29:18.181Z,19.50
2018-04-14T13:31:46.441Z,20.20
2018-04-14T13:34:15.473Z,21.30
2018-04-14T13:36:43.749Z,21.20
2018-04-14T13:39:12.015Z,20.60
2018-04-14T13:41:40.273Z,19.40
2018-04-14T13:44:08.545Z,19.30
2018-04-14T13:46:37.670Z,19.50
2018-04-14T13:49:05.945Z,20.00
2018-04-14T13:51:34.201Z,19.80
2018-04-14T13:54:03.813Z,19.70
2018-04-14T13:56:32.076Z,20.40
2018-04-14T13:59:00.792Z,20.90
2018-04-14T14:01:29.081Z,21.00
2018-04-14T14:03:57.339Z,20.90
2018-04-14T14:06:25.601Z,20.60
2018-04-14T14:08:53.856Z,20.40
2018-04-14T14:11:22.900Z,20.80
2018-04-14T14:13:51.151Z,20.70
2018-04-14T14:16:19.417Z,20.60
2018-04-14T14:18:47.659Z,21.20
2018-04-14T14:21:15.924Z,21.00
2018-04-14T14:23:44.164Z,21.50
2018-04-14T14:26:12.418Z,20.40
2018-04-14T14:28:40.688Z,20.40
2018-04-14T14:31:09.698Z,21.30
2018-04-14T14:33:37.979Z,21.30
2018-04-14T14:36:06.979Z,21.70
2018-04-14T14:38:35.238Z,21.70
2018-04-14T14:41:03.500Z,21.20
2018-04-14T14:43:32.514Z,21.70
2018-04-14T14:46:00.768Z,21.60
2018-04-14T14:48:29.068Z,21.50
2018-04-14T14:50:58.062Z,21.80
2018-04-14T14:53:26.317Z,21.80
2018-04-14T14:55:54.581Z,21.20
2018-04-14T14:58:23.632Z,21.30
2018-04-14T15:00:51.893Z,21.30
2018-04-14T15:03:20.178Z,21.80
2018-04-14T15:05:48.449Z,22.10
2018-04-14T15:08:16.714Z,22.50
2018-04-14T15:10:44.961Z,22.10
2018-04-14T15:13:13.222Z,22.00
2018-04-14T15:15:42.237Z,23.00
2018-04-14T15:18:10.499Z,23.00
2018-04-14T15:20:38.766Z,23.00
2018-04-14T15:23:07.025Z,22.70
2018-04-14T15:25:35.288Z,22.40
2018-04-14T15:28:04.239Z,22.30
2018-04-14T15:30:32.485Z,22.80
2018-04-14T15:33:00.756Z,22.80
2018-04-14T15:35:29.821Z,21.50
2018-04-14T15:37:58.096Z,21.50
2018-04-14T15:40:26.360Z,21.80
2018-04-14T15:42:54.608Z,22.10
2018-04-14T15:45:22.898Z,22.70
2018-04-14T15:47:51.173Z,22.20
2018-04-14T15:50:19.430Z,21.60
2018-04-14T15:52:47.690Z,21.80
2018-04-14T15:55:15.946Z,22.50
2018-04-14T15:57:44.213Z,22.60
2018-04-14T16:00:12.478Z,22.00
2018-04-14T16:02:41.303Z,21.50
2018-04-14T16:05:10.329Z,20.40
2018-04-14T16:07:38.587Z,20.30
2018-04-14T16:10:06.866Z,20.20
2018-04-14T16:12:35.112Z,20.40
2018-04-14T16:15:03.379Z,20.30
2018-04-14T16:17:31.655Z,19.60
2018-04-14T16:19:59.910Z,19.40
2018-04-14T16:22:28.765Z,19.40
2018-04-14T16:24:57.060Z,19.50
2018-04-14T16:27:25.319Z,19.50
2018-04-14T16:29:54.493Z,19.30
2018-04-14T16:32:23.539Z,18.80
2018-04-14T16:34:51.797Z,18.80
2018-04-14T16:37:20.056Z,18.60
2018-04-14T16:39:48.511Z,18.40
2018-04-14T16:42:18.251Z,18.20
2018-04-14T16:44:46.801Z,18.10
2018-04-14T16:47:15.716Z,18.00
2018-04-14T16:49:44.869Z,18.00
2018-04-14T16:52:13.120Z,17.90
2018-04-14T16:54:42.217Z,17.80
2018-04-14T16:57:11.254Z,17.90
2018-04-14T16:59:40.274Z,17.90
2018-04-14T17:02:08.528Z,17.90
2018-04-14T17:04:36.778Z,17.90
2018-04-14T17:07:05.032Z,17.80
2018-04-14T17:09:33.289Z,17.70
2018-04-14T17:12:01.544Z,17.60
2018-04-14T17:14:29.798Z,17.60
2018-04-14T17:16:58.053Z,17.50
2018-04-14T17:19:26.304Z,17.50
2018-04-14T17:21:54.560Z,17.30
2018-04-14T17:24:22.821Z,17.30
2018-04-14T17:26:51.837Z,17.10
2018-04-14T17:29:20.086Z,17.10
2018-04-14T17:31:49.117Z,16.90
2018-04-14T17:34:17.479Z,16.90
2018-04-14T17:36:45.721Z,16.90
2018-04-14T17:39:21.902Z,16.70
2018-04-14T17:41:50.158Z,16.70
2018-04-14T17:44:19.233Z,16.60
2018-04-14T17:46:47.428Z,16.60
2018-04-14T17:49:16.453Z,16.50
2018-04-14T17:51:44.692Z,16.40
2018-04-14T17:54:13.718Z,16.30
2018-04-14T17:56:41.961Z,16.30
2018-04-14T17:59:10.977Z,16.00
2018-04-14T18:01:39.584Z,16.00
2018-04-14T18:04:07.837Z,15.80
2018-04-14T18:06:36.080Z,15.80
2018-04-14T18:09:04.354Z,15.70
2018-04-14T18:11:32.606Z,15.60
2018-04-14T18:14:00.866Z,15.50
2018-04-14T18:16:29.125Z,15.40
2018-04-14T18:18:57.381Z,15.30
2018-04-14T18:21:26.389Z,15.30
2018-04-14T18:23:54.651Z,15.20
2018-04-14T18:26:23.663Z,15.20
2018-04-14T18:28:51.919Z,15.10
2018-04-14T18:31:20.217Z,15.00
2018-04-14T18:33:49.219Z,15.00
2018-04-14T18:36:17.471Z,15.00
2018-04-14T18:38:45.716Z,15.00
2018-04-14T18:41:14.746Z,14.80
2018-04-14T18:43:43.002Z,14.80
2018-04-14T18:46:12.030Z,14.80
2018-04-14T18:48:40.280Z,14.80
2018-04-14T18:51:08.544Z,14.80
2018-04-14T18:53:37.562Z,14.80
2018-04-14T18:56:05.818Z,14.80
2018-04-14T18:58:34.843Z,14.70
2018-04-14T19:01:03.095Z,14.70
2018-04-14T19:03:31.353Z,14.60
2018-04-14T19:06:00.374Z,14.40
2018-04-14T19:08:28.637Z,14.30
2018-04-14T19:10:56.902Z,14.20
2018-04-14T19:13:25.913Z,14.10
2018-04-14T19:15:54.185Z,14.10
2018-04-14T19:18:22.442Z,14.10
2018-04-14T19:20:51.485Z,14.20
2018-04-14T19:23:19.743Z,14.10
2018-04-14T19:25:47.992Z,14.10
2018-04-14T19:28:17.014Z,14.20
2018-04-14T19:30:45.265Z,14.10
2018-04-14T19:33:14.290Z,14.10
2018-04-14T19:35:42.538Z,14.10
2018-04-14T19:38:10.800Z,14.00
2018-04-14T19:40:39.812Z,13.80
2018-04-14T19:43:08.077Z,13.80
2018-04-14T19:45:37.084Z,13.60
2018-04-14T19:48:05.367Z,13.60
2018-04-14T19:50:33.608Z,13.50
2018-04-14T19:53:02.630Z,13.30
2018-04-14T19:55:30.880Z,13.30
2018-04-14T19:57:59.904Z,13.30
2018-04-14T20:00:28.160Z,13.30
2018-04-14T20:02:56.428Z,13.30
2018-04-14T20:05:25.453Z,13.40
2018-04-14T20:07:53.713Z,13.40
2018-04-14T20:10:21.965Z,13.30
2018-04-14T20:12:50.986Z,13.40
2018-04-14T20:15:19.237Z,13.40
2018-04-14T20:17:48.262Z,13.20
2018-04-14T20:20:16.509Z,13.20
2018-04-14T20:22:45.535Z,13.10
2018-04-14T20:25:13.787Z,13.10
2018-04-14T20:27:42.880Z,13.10
2018-04-14T20:30:11.140Z,13.10
2018-04-14T20:32:40.174Z,13.20
2018-04-14T20:35:08.425Z,13.20
2018-04-14T20:37:36.677Z,13.20
2018-04-14T20:40:04.942Z,13.20
2018-04-14T20:42:33.240Z,13.30
2018-04-14T20:45:02.276Z,13.10
2018-04-14T20:47:30.610Z,13.10
2018-04-14T20:49:58.869Z,13.00
2018-04-14T20:52:27.125Z,12.80
2018-04-14T20:54:56.157Z,12.50
2018-04-14T20:57:24.430Z,12.50
2018-04-14T20:59:52.703Z,12.30
2018-04-14T21:02:20.966Z,12.40
2018-04-14T21:04:49.232Z,12.50
2018-04-14T21:07:17.498Z,12.50
2018-04-14T21:09:45.769Z,12.50
2018-04-14T21:12:14.067Z,12.50
2018-04-14T21:14:42.375Z,12.40
2018-04-14T21:17:10.632Z,12.40
2018-04-14T21:19:38.893Z,12.30
2018-04-14T21:22:07.147Z,12.30
2018-04-14T21:24:35.421Z,12.30
2018-04-14T21:27:03.678Z,12.20
2018-04-14T21:29:31.939Z,12.20
2018-04-14T21:32:00.197Z,12.10
2018-04-14T21:34:29.240Z,12.00
2018-04-14T21:36:57.512Z,11.90
2018-04-14T21:39:25.783Z,11.90
2018-04-14T21:41:54.060Z,12.00
2018-04-14T21:44:22.329Z,12.00
2018-04-14T21:46:50.597Z,12.00
2018-04-14T21:49:18.870Z,12.10
2018-04-14T21:51:47.153Z,12.10
2018-04-14T21:54:15.427Z,12.20
2018-04-14T21:56:43.710Z,12.20
2018-04-14T21:59:12.099Z,12.20
2018-04-14T22:01:40.454Z,12.20
2018-04-14T22:04:08.714Z,12.20
2018-04-14T22:06:37.755Z,12.00
2018-04-14T22:09:06.757Z,11.90
2018-04-14T22:11:35.040Z,11.90
2018-04-14T22:14:03.298Z,11.80
2018-04-14T22:16:31.560Z,11.80
2018-04-14T22:18:59.816Z,11.70
2018-04-14T22:21:28.075Z,11.70
2018-04-14T22:23:57.098Z,11.70
2018-04-14T22:26:25.349Z,11.70
2018-04-14T22:28:53.606Z,11.80
2018-04-14T22:31:22.624Z,11.90
2018-04-14T22:33:50.896Z,11.80
2018-04-14T22:36:19.145Z,11.90
2018-04-14T22:38:48.170Z,11.90
2018-04-14T22:41:16.418Z,11.80
2018-04-14T22:43:45.444Z,11.90
2018-04-14T22:46:13.700Z,11.80
2018-04-14T22:48:42.721Z,11.90
2018-04-14T22:51:10.982Z,11.80
2018-04-14T22:53:39.236Z,11.90
2018-04-14T22:56:08.254Z,11.80
2018-04-14T22:58:36.516Z,11.80
2018-04-14T23:01:05.539Z,11.70
2018-04-14T23:03:33.796Z,11.70
2018-04-14T23:06:02.058Z,11.70
2018-04-14T23:08:31.104Z,11.30
2018-04-14T23:10:59.360Z,11.30
2018-04-14T23:13:27.633Z,11.20
2018-04-14T23:15:55.885Z,11.20
2018-04-14T23:18:24.136Z,11.20
2018-04-14T23:20:53.160Z,11.10
2018-04-14T23:23:21.420Z,11.00
2018-04-14T23:25:50.451Z,10.80
2018-04-14T23:28:18.705Z,10.80
2018-04-14T23:30:46.968Z,10.70
2018-04-14T23:33:15.998Z,10.70
2018-04-14T23:35:45.090Z,10.70
2018-04-14T23:38:13.346Z,10.70
2018-04-14T23:40:41.611Z,10.60
2018-04-14T23:43:09.874Z,10.50
2018-04-14T23:45:38.906Z,10.40
2018-04-14T23:48:07.183Z,10.40
2018-04-14T23:50:35.452Z,10.30
2018-04-14T23:53:03.716Z,10.30
2018-04-14T23:55:32.010Z,10.20
2018-04-14T23:58:00.264Z,10.20
